createdAt,value
2022-12-11T00:03:34.642Z,99576.60
2022-12-11T00:08:34.416Z,99567.80
2022-12-11T00:13:33.545Z,99563.60
2022-12-11T00:18:32.885Z,99559.20
2022-12-11T00:23:31.476Z,99566.20
2022-12-11T00:28:30.912Z,99574.40
2022-12-11T00:33:30.920Z,99576.20
2022-12-11T00:38:30.312Z,99576.00
2022-12-11T00:43:29.830Z,99574.80
2022-12-11T00:48:29.351Z,99570.40
2022-12-11T00:53:29.110Z,99564.20
2022-12-11T00:58:28.898Z,99558.40
2022-12-11T01:03:28.135Z,99555.80
2022-12-11T01:08:27.349Z,99561.80
2022-12-11T01:13:26.944Z,99572.00
2022-12-11T01:18:26.388Z,99564.20
2022-12-11T01:23:25.106Z,99561.00
2022-12-11T01:28:24.212Z,99566.40
2022-12-11T01:33:23.189Z,99548.20
2022-12-11T01:38:22.291Z,99542.80
2022-12-11T01:43:20.965Z,99532.00
2022-12-11T01:48:26.080Z,99521.00
2022-12-11T01:53:33.681Z,99510.40
2022-12-11T01:58:38.882Z,99503.20
2022-12-11T02:03:38.240Z,99499.00
2022-12-11T02:08:37.151Z,99500.00
2022-12-11T02:13:46.484Z,99485.80
2022-12-11T02:18:56.973Z,99488.40
2022-12-11T02:24:26.596Z,99482.80
2022-12-11T02:29:32.362Z,99471.20
2022-12-11T02:34:42.696Z,99476.80
2022-12-11T02:39:46.668Z,99473.60
2022-12-11T02:44:48.330Z,99471.20
2022-12-11T02:49:52.042Z,99468.40
2022-12-11T02:54:53.437Z,99457.80
2022-12-11T02:59:51.989Z,99460.40
2022-12-11T03:04:52.035Z,99460.20
2022-12-11T03:09:52.682Z,99464.60
2022-12-11T03:14:52.623Z,99464.20
2022-12-11T03:20:02.159Z,99464.80
2022-12-11T03:25:10.685Z,99468.60
2022-12-11T03:30:15.559Z,99464.20
2022-12-11T03:35:24.808Z,99464.20
2022-12-11T03:40:27.878Z,99469.00
2022-12-11T03:45:29.968Z,99470.80
2022-12-11T03:50:32.756Z,99466.40
2022-12-11T03:55:34.442Z,99471.00
2022-12-11T04:00:34.066Z,99469.80
2022-12-11T04:05:33.088Z,99468.20
2022-12-11T04:10:31.888Z,99463.00
2022-12-11T04:15:30.503Z,99452.80
2022-12-11T04:20:47.509Z,99441.60
2022-12-11T04:25:46.631Z,99441.00
2022-12-11T04:30:51.336Z,99442.60
2022-12-11T04:35:50.954Z,99442.00
2022-12-11T04:40:49.791Z,99432.00
2022-12-11T04:45:49.204Z,99437.60
2022-12-11T04:50:48.085Z,99434.20
2022-12-11T04:55:47.244Z,99437.40
2022-12-11T05:00:47.077Z,99432.60
2022-12-11T05:05:52.071Z,99425.40
2022-12-11T05:11:01.381Z,99413.80
2022-12-11T05:16:00.635Z,99395.80
2022-12-11T05:21:06.546Z,99393.20
2022-12-11T05:26:08.968Z,99388.20
2022-12-11T05:31:13.269Z,99380.60
2022-12-11T05:36:18.362Z,99375.00
2022-12-11T05:41:20.843Z,99369.80
2022-12-11T05:46:24.549Z,99362.80
2022-12-11T05:51:24.230Z,99360.20
2022-12-11T05:56:26.571Z,99349.20
2022-12-11T06:01:30.336Z,99344.80
2022-12-11T06:06:30.265Z,99341.20
2022-12-11T06:11:31.918Z,99339.80
2022-12-11T06:16:31.046Z,99351.00
2022-12-11T06:21:33.233Z,99349.20
2022-12-11T06:26:33.247Z,99354.20
2022-12-11T06:31:32.685Z,99352.20
2022-12-11T06:36:31.928Z,99356.40
2022-12-11T06:41:33.780Z,99358.00
2022-12-11T06:46:33.074Z,99354.00
2022-12-11T06:51:33.199Z,99353.00
2022-12-11T06:56:32.444Z,99354.60
2022-12-11T07:01:31.994Z,99354.00
2022-12-11T07:06:35.237Z,99357.80
2022-12-11T07:11:34.324Z,99354.20
2022-12-11T07:16:33.465Z,99346.00
2022-12-11T07:21:33.071Z,99346.20
2022-12-11T07:26:32.661Z,99339.00
2022-12-11T07:31:33.431Z,99335.00
2022-12-11T07:36:34.025Z,99332.80
2022-12-11T07:41:33.075Z,99329.00
2022-12-11T07:46:35.045Z,99321.00
2022-12-11T07:51:38.117Z,99318.20
2022-12-11T07:56:37.919Z,99314.00
2022-12-11T08:01:39.479Z,99304.60
2022-12-11T08:06:41.242Z,99297.40
2022-12-11T08:11:40.595Z,99299.60
2022-12-11T08:16:43.239Z,99292.40
2022-12-11T08:21:43.694Z,99293.40
2022-12-11T08:26:42.321Z,99290.00
2022-12-11T08:31:43.301Z,99291.80
2022-12-11T08:36:44.144Z,99283.60
2022-12-11T08:41:42.896Z,99285.40
2022-12-11T08:46:42.014Z,99278.20
2022-12-11T08:51:41.622Z,99268.20
2022-12-11T08:56:41.520Z,99270.00
2022-12-11T09:01:42.155Z,99272.00
2022-12-11T09:06:41.368Z,99263.00
2022-12-11T09:11:42.375Z,99262.00
2022-12-11T09:16:44.047Z,99258.20
2022-12-11T09:21:44.305Z,99241.80
2022-12-11T09:26:44.134Z,99246.00
2022-12-11T09:31:43.510Z,99238.00
2022-12-11T09:36:45.561Z,99217.60
2022-12-11T09:42:01.309Z,99217.40
2022-12-11T09:47:02.568Z,99198.80
2022-12-11T09:52:15.270Z,99194.20
2022-12-11T09:57:35.504Z,99190.80
2022-12-11T10:02:49.250Z,99173.20
2022-12-11T10:08:00.810Z,99161.00
2022-12-11T10:13:12.085Z,99164.60
2022-12-11T10:18:21.326Z,99168.60
2022-12-11T10:23:28.922Z,99154.20
2022-12-11T10:28:31.199Z,99141.00
2022-12-11T10:33:43.007Z,99133.20
2022-12-11T10:38:47.036Z,99139.60
2022-12-11T10:43:49.008Z,99125.40
2022-12-11T10:48:54.806Z,99122.00
2022-12-11T10:54:04.084Z,99117.80
2022-12-11T10:59:06.978Z,99109.80
2022-12-11T11:04:16.353Z,99091.80
2022-12-11T11:09:35.629Z,99084.20
2022-12-11T11:14:35.500Z,99074.20
2022-12-11T11:19:40.853Z,99072.00
2022-12-11T11:24:44.068Z,99060.00
2022-12-11T11:29:48.895Z,99054.40
2022-12-11T11:34:50.605Z,99055.00
2022-12-11T11:39:51.670Z,99056.20
2022-12-11T11:45:04.653Z,99047.00
2022-12-11T11:50:13.368Z,99047.80
2022-12-11T11:55:23.109Z,99043.60
2022-12-11T12:00:33.373Z,99037.60
2022-12-11T12:05:47.311Z,99031.00
2022-12-11T12:10:55.382Z,99041.40
2022-12-11T12:16:01.598Z,99031.20
2022-12-11T12:21:14.582Z,99023.20
2022-12-11T12:26:27.733Z,99028.40
2022-12-11T12:31:57.675Z,99021.60
2022-12-11T12:37:12.646Z,99017.60
2022-12-11T12:42:23.478Z,99019.00
2022-12-11T12:47:25.679Z,99008.60
2022-12-11T12:52:32.276Z,99009.20
2022-12-11T12:57:31.697Z,98997.00
2022-12-11T13:02:31.437Z,98995.00
2022-12-11T13:07:33.862Z,98997.60
2022-12-11T13:12:47.557Z,98988.60
2022-12-11T13:17:46.103Z,98987.80
2022-12-11T13:23:09.323Z,98989.20
2022-12-11T13:28:25.441Z,98989.80
2022-12-11T13:33:27.161Z,98983.80
2022-12-11T13:38:27.243Z,98989.80
2022-12-11T13:43:31.481Z,98991.00
2022-12-11T13:48:39.418Z,98999.40
2022-12-11T13:53:38.316Z,98994.60
2022-12-11T13:58:41.575Z,98987.20
2022-12-11T14:03:43.435Z,98977.80
2022-12-11T14:08:49.333Z,98967.60
2022-12-11T14:13:49.076Z,98975.80
2022-12-11T14:18:50.255Z,98982.80
2022-12-11T14:23:58.895Z,98977.40
2022-12-11T14:28:58.804Z,98967.20
2022-12-11T14:34:04.969Z,98963.40
2022-12-11T14:39:12.654Z,98954.20
2022-12-11T14:44:17.529Z,98959.00
2022-12-11T14:49:26.196Z,98963.60
2022-12-11T14:54:34.189Z,98949.60
2022-12-11T14:59:37.825Z,98948.40
2022-12-11T15:04:38.391Z,98955.00
2022-12-11T15:09:43.412Z,98950.60
2022-12-11T15:14:52.861Z,98943.00
2022-12-11T15:19:57.442Z,98941.80
2022-12-11T15:24:58.432Z,98949.60
2022-12-11T15:29:58.210Z,98961.00
2022-12-11T15:35:00.144Z,98967.40
2022-12-11T15:40:02.479Z,98967.00
2022-12-11T15:45:03.130Z,98968.80
2022-12-11T15:50:10.293Z,98963.80
2022-12-11T15:55:12.276Z,98962.80
2022-12-11T16:00:21.801Z,98970.20
2022-12-11T16:05:21.872Z,98962.40
2022-12-11T16:10:22.939Z,98952.60
2022-12-11T16:15:24.112Z,98950.00
2022-12-11T16:20:24.851Z,98955.60
2022-12-11T16:25:24.381Z,98957.00
2022-12-11T16:30:24.028Z,98951.60
2022-12-11T16:35:27.033Z,98940.80
2022-12-11T16:40:29.133Z,98944.40
2022-12-11T16:45:30.041Z,98950.80
2022-12-11T16:50:29.684Z,98955.20
2022-12-11T16:55:29.418Z,98953.00
2022-12-11T17:00:29.780Z,98962.00
2022-12-11T17:05:28.898Z,98955.00
2022-12-11T17:10:27.983Z,98961.80
2022-12-11T17:15:26.822Z,98967.00
2022-12-11T17:20:26.323Z,98966.60
2022-12-11T17:25:26.084Z,98960.20
2022-12-11T17:30:25.818Z,98951.20
2022-12-11T17:35:24.783Z,98954.00
2022-12-11T17:40:24.605Z,98944.20
2022-12-11T17:45:24.154Z,98940.80
2022-12-11T17:50:23.499Z,98941.80
2022-12-11T17:55:23.460Z,98932.00
2022-12-11T18:00:25.433Z,98942.20
2022-12-11T18:05:28.570Z,98949.40
2022-12-11T18:10:31.536Z,98956.00
2022-12-11T18:15:30.651Z,98960.80
2022-12-11T18:20:32.067Z,98970.00
2022-12-11T18:25:31.164Z,98962.40
2022-12-11T18:30:31.287Z,98965.40
2022-12-11T18:35:30.827Z,98964.60
2022-12-11T18:40:30.838Z,98954.40
2022-12-11T18:45:30.666Z,98947.00
2022-12-11T18:50:30.238Z,98950.40
2022-12-11T18:55:29.914Z,98946.40
2022-12-11T19:00:29.567Z,98953.00
2022-12-11T19:05:28.759Z,98943.00
2022-12-11T19:10:28.745Z,98922.40
2022-12-11T19:15:27.822Z,98930.20
2022-12-11T19:20:47.907Z,98928.20
2022-12-11T19:25:50.821Z,98926.00
2022-12-11T19:30:51.267Z,98921.00
2022-12-11T19:35:50.336Z,98912.60
2022-12-11T19:40:49.526Z,98906.60
2022-12-11T19:45:49.238Z,98903.80
2022-12-11T19:50:48.397Z,98895.60
2022-12-11T19:55:54.766Z,98912.20
2022-12-11T20:00:54.423Z,98922.20
2022-12-11T20:05:54.321Z,98920.60
2022-12-11T20:10:54.116Z,98922.40
2022-12-11T20:15:53.925Z,98929.00
2022-12-11T20:20:53.847Z,98922.60
2022-12-11T20:25:58.828Z,98915.40
2022-12-11T20:31:04.502Z,98913.00
2022-12-11T20:36:07.331Z,98912.80
2022-12-11T20:41:07.135Z,98915.60
2022-12-11T20:46:09.134Z,98920.80
2022-12-11T20:51:13.957Z,98913.80
2022-12-11T20:56:18.159Z,98911.40
2022-12-11T21:01:21.230Z,98901.60
2022-12-11T21:06:28.444Z,98898.00
2022-12-11T21:11:28.953Z,98915.00
2022-12-11T21:16:28.820Z,98916.40
2022-12-11T21:21:28.912Z,98911.00
2022-12-11T21:26:29.194Z,98899.40
2022-12-11T21:31:29.084Z,98899.00
2022-12-11T21:36:29.170Z,98902.40
2022-12-11T21:41:30.317Z,98903.60
2022-12-11T21:46:32.429Z,98905.60
2022-12-11T21:51:38.615Z,98910.00
2022-12-11T21:56:39.878Z,98910.40
2022-12-11T22:01:46.119Z,98923.00
2022-12-11T22:06:47.443Z,98912.80
2022-12-11T22:11:49.281Z,98918.20
2022-12-11T22:16:51.363Z,98921.80
2022-12-11T22:21:51.873Z,98909.80
2022-12-11T22:26:51.855Z,98905.60
2022-12-11T22:31:51.221Z,98917.40
2022-12-11T22:36:50.322Z,98920.20
2022-12-11T22:41:51.089Z,98917.20
2022-12-11T22:46:52.033Z,98913.60
2022-12-11T22:51:52.327Z,98914.80
2022-12-11T22:56:51.593Z,98914.40
2022-12-11T23:01:50.247Z,98903.60
2022-12-11T23:06:49.888Z,98900.60
2022-12-11T23:11:49.183Z,98903.00
2022-12-11T23:16:48.444Z,98900.80
2022-12-11T23:21:48.260Z,98904.80
2022-12-11T23:26:48.277Z,98917.00
2022-12-11T23:31:47.141Z,98911.20
2022-12-11T23:36:46.751Z,98910.80
2022-12-11T23:41:45.480Z,98913.20
2022-12-11T23:46:45.138Z,98910.40
2022-12-11T23:51:44.199Z,98909.20
2022-12-11T23:56:43.767Z,98913.00
